Terminal Aerodrome Forecast
Issued by NWS Corpus Christi, TX

Home | Current Version | Previous Version | Text Only | Print | Product List | Glossary On
Versions: 1 2 3 4 5 6 7 8 9 10 11 12 13 14 15 16 17 18 19 20 21 22 23 24 25 26
000
FTUS44 KCRP 310100 AAA
TAFCRP
TAF AMD
KCRP 310104Z 3101/3124 07016KT P6SM SCT006 OVC010
      TEMPO 3101/3105 OVC008
     FM310500 09012KT P6SM OVC007
      TEMPO 3109/3113 5SM BR OVC005
     FM311400 12013KT P6SM BKN014 OVC025
     FM311800 15019G27KT P6SM BKN025 OVC120=

USA.gov is the U.S. government's official web portal to all federal, state and local government web resources and services.